createdAt,value
2022-11-24T00:01:25.001Z,4.35
2022-11-24T00:03:56.951Z,4.38
2022-11-24T00:06:23.911Z,4.43
2022-11-24T00:08:50.457Z,4.47
2022-11-24T00:11:19.470Z,4.57
2022-11-24T00:13:48.700Z,4.60
2022-11-24T00:16:16.605Z,4.58
2022-11-24T00:18:45.274Z,4.55
2022-11-24T00:21:12.132Z,4.59
2022-11-24T00:23:39.193Z,4.58
2022-11-24T00:26:13.927Z,4.50
2022-11-24T00:28:41.224Z,4.60
2022-11-24T00:31:21.371Z,4.61
2022-11-24T00:33:49.923Z,4.82
2022-11-24T00:36:17.152Z,4.68
2022-11-24T00:38:44.444Z,4.56
2022-11-24T00:41:14.677Z,4.71
2022-11-24T00:43:43.269Z,4.77
2022-11-24T00:46:09.809Z,4.87
2022-11-24T00:48:36.349Z,4.81
2022-11-24T00:51:05.909Z,4.88
2022-11-24T00:53:32.430Z,4.78
2022-11-24T00:55:58.860Z,4.83
2022-11-24T00:58:25.753Z,4.77
2022-11-24T01:00:55.017Z,4.73
2022-11-24T01:03:22.021Z,4.80
2022-11-24T01:05:49.079Z,4.81
2022-11-24T01:08:15.596Z,4.85
2022-11-24T01:10:42.018Z,4.80
2022-11-24T01:13:08.513Z,4.76
2022-11-24T01:15:39.181Z,4.88
2022-11-24T01:18:06.220Z,4.81
2022-11-24T01:20:32.785Z,5.00
2022-11-24T01:22:59.282Z,5.10
2022-11-24T01:25:25.783Z,5.17
2022-11-24T01:27:52.504Z,5.11
2022-11-24T01:30:19.067Z,5.33
2022-11-24T01:32:45.490Z,5.49
2022-11-24T01:35:11.911Z,5.63
2022-11-24T01:37:38.347Z,5.55
2022-11-24T01:40:05.752Z,5.43
2022-11-24T01:42:45.185Z,5.43
2022-11-24T01:45:35.166Z,5.64
2022-11-24T01:48:06.025Z,5.71
2022-11-24T01:50:35.586Z,5.80
2022-11-24T01:53:02.136Z,5.89
2022-11-24T01:55:37.693Z,5.87
2022-11-24T01:58:18.850Z,5.89
2022-11-24T02:00:46.973Z,6.00
2022-11-24T02:03:17.403Z,6.07
2022-11-24T02:06:16.450Z,5.99
2022-11-24T02:08:51.066Z,6.01
2022-11-24T02:11:19.210Z,6.06
2022-11-24T02:13:46.360Z,6.13
2022-11-24T02:16:15.526Z,6.21
2022-11-24T02:18:43.154Z,6.22
2022-11-24T02:21:11.936Z,6.13
2022-11-24T02:23:50.447Z,6.14
2022-11-24T02:26:19.742Z,6.25
2022-11-24T02:28:46.979Z,6.32
2022-11-24T02:31:13.840Z,6.37
2022-11-24T02:33:40.915Z,6.37
2022-11-24T02:36:07.662Z,6.48
2022-11-24T02:38:35.462Z,6.49
2022-11-24T02:41:15.033Z,6.47
2022-11-24T02:43:46.083Z,6.44
2022-11-24T02:46:12.540Z,6.55
2022-11-24T02:48:39.335Z,6.43
2022-11-24T02:51:06.007Z,6.48
2022-11-24T02:53:32.454Z,6.54
2022-11-24T02:56:01.292Z,6.52
2022-11-24T02:58:27.948Z,6.50
2022-11-24T03:00:55.111Z,6.55
2022-11-24T03:03:21.890Z,6.46
2022-11-24T03:05:48.523Z,6.37
2022-11-24T03:08:19.822Z,6.52
2022-11-24T03:10:46.395Z,6.57
2022-11-24T03:13:12.845Z,6.63
2022-11-24T03:15:39.300Z,6.65
2022-11-24T03:18:05.899Z,6.55
2022-11-24T03:20:32.517Z,6.50
2022-11-24T03:22:58.920Z,6.43
2022-11-24T03:25:25.366Z,6.35
2022-11-24T03:27:51.787Z,6.47
2022-11-24T03:30:20.582Z,6.35
2022-11-24T03:32:47.047Z,6.45
2022-11-24T03:35:13.447Z,6.45
2022-11-24T03:37:39.862Z,6.60
2022-11-24T03:40:06.920Z,6.61
2022-11-24T03:42:33.530Z,6.78
2022-11-24T03:45:16.700Z,6.80
2022-11-24T03:47:50.461Z,6.69
2022-11-24T03:50:17.213Z,6.74
2022-11-24T03:52:43.606Z,6.69
2022-11-24T03:55:10.033Z,6.62
2022-11-24T03:57:36.462Z,6.76
2022-11-24T04:00:03.775Z,6.58
2022-11-24T04:02:30.229Z,6.45
2022-11-24T04:04:56.713Z,6.54
2022-11-24T04:07:23.145Z,6.64
2022-11-24T04:09:49.619Z,6.56
2022-11-24T04:12:34.520Z,6.65
2022-11-24T04:15:00.956Z,6.59
2022-11-24T04:17:28.535Z,6.52
2022-11-24T04:19:54.939Z,6.47
2022-11-24T04:22:21.349Z,6.56
2022-11-24T04:24:47.826Z,6.61
2022-11-24T04:27:14.286Z,6.54
2022-11-24T04:29:40.757Z,6.65
2022-11-24T04:32:07.169Z,6.67
2022-11-24T04:34:36.302Z,6.71
2022-11-24T04:37:05.446Z,6.71
2022-11-24T04:39:34.276Z,6.72
2022-11-24T04:42:03.168Z,6.74
2022-11-24T04:44:32.483Z,6.87
2022-11-24T04:46:59.281Z,6.89
2022-11-24T04:49:28.149Z,6.75
2022-11-24T04:51:54.591Z,6.83
2022-11-24T04:54:21.070Z,6.77
2022-11-24T04:56:51.644Z,6.69
2022-11-24T04:59:18.945Z,6.65
2022-11-24T05:01:48.303Z,6.66
2022-11-24T05:04:16.005Z,6.65
2022-11-24T05:06:42.625Z,6.63
2022-11-24T05:09:15.390Z,6.60
2022-11-24T05:11:44.311Z,6.56
2022-11-24T05:14:13.118Z,6.58
2022-11-24T05:16:39.654Z,6.58
2022-11-24T05:19:06.190Z,6.53
2022-11-24T05:21:32.679Z,6.51
2022-11-24T05:23:59.118Z,6.45
2022-11-24T05:26:26.891Z,6.46
2022-11-24T05:28:53.532Z,6.49
2022-11-24T05:31:20.212Z,6.46
2022-11-24T05:33:46.779Z,6.51
2022-11-24T05:36:34.071Z,6.42
2022-11-24T05:39:01.198Z,6.39
2022-11-24T05:41:27.733Z,6.34
2022-11-24T05:43:54.260Z,6.28
2022-11-24T05:46:23.014Z,6.34
2022-11-24T05:48:49.595Z,6.30
2022-11-24T05:51:15.992Z,6.20
2022-11-24T05:53:44.695Z,6.20
2022-11-24T05:56:11.090Z,6.19
2022-11-24T05:58:37.507Z,6.28
2022-11-24T06:01:06.879Z,6.35
2022-11-24T06:03:33.881Z,6.45
2022-11-24T06:06:00.328Z,6.49
2022-11-24T06:08:30.908Z,6.55
2022-11-24T06:11:19.934Z,6.53
2022-11-24T06:13:50.713Z,6.53
2022-11-24T06:16:17.360Z,6.53
2022-11-24T06:18:43.915Z,6.61
2022-11-24T06:21:11.777Z,6.65
2022-11-24T06:23:39.323Z,6.72
2022-11-24T06:26:09.297Z,6.77
2022-11-24T06:28:36.301Z,6.78
2022-11-24T06:31:03.741Z,6.91
2022-11-24T06:33:34.738Z,6.91
2022-11-24T06:36:07.397Z,6.84
2022-11-24T06:38:35.442Z,6.81
2022-11-24T06:41:03.955Z,6.89
2022-11-24T06:43:31.026Z,6.89
2022-11-24T06:45:57.986Z,7.06
2022-11-24T06:48:25.666Z,7.08
2022-11-24T06:50:52.209Z,6.97
2022-11-24T06:53:19.237Z,7.06
2022-11-24T06:55:47.005Z,7.16
2022-11-24T06:58:13.473Z,7.21
2022-11-24T07:00:39.990Z,7.22
2022-11-24T07:03:06.683Z,7.15
2022-11-24T07:05:33.157Z,7.19
2022-11-24T07:08:00.544Z,7.14
2022-11-24T07:10:27.231Z,7.16
2022-11-24T07:12:53.683Z,7.25
2022-11-24T07:15:20.177Z,7.37
2022-11-24T07:17:46.577Z,7.39
2022-11-24T07:20:13.154Z,7.51
2022-11-24T07:22:39.564Z,7.49
2022-11-24T07:25:09.557Z,7.51
2022-11-24T07:27:36.378Z,7.65
2022-11-24T07:30:05.853Z,7.54
2022-11-24T07:32:32.930Z,7.58
2022-11-24T07:34:59.752Z,7.59
2022-11-24T07:37:31.259Z,7.54
2022-11-24T07:39:58.484Z,7.58
2022-11-24T07:42:24.895Z,7.58
2022-11-24T07:44:53.668Z,7.69
2022-11-24T07:47:20.104Z,7.68
2022-11-24T07:49:46.571Z,7.64
2022-11-24T07:52:15.378Z,7.67
2022-11-24T07:54:41.808Z,7.66
2022-11-24T07:57:08.199Z,7.67
2022-11-24T07:59:34.656Z,7.82
2022-11-24T08:02:01.647Z,7.91
2022-11-24T08:04:28.140Z,8.01
2022-11-24T08:06:54.600Z,8.18
2022-11-24T08:09:21.088Z,8.25
2022-11-24T08:11:47.513Z,8.25
2022-11-24T08:14:13.954Z,8.27
2022-11-24T08:16:40.537Z,8.43
2022-11-24T08:19:07.013Z,8.35
2022-11-24T08:21:33.688Z,8.29
2022-11-24T08:24:00.089Z,8.47
2022-11-24T08:26:26.809Z,8.63
2022-11-24T08:28:58.164Z,8.53
2022-11-24T08:31:32.475Z,8.61
2022-11-24T08:33:59.875Z,8.52
2022-11-24T08:36:26.463Z,8.74
2022-11-24T08:38:59.710Z,8.89
2022-11-24T08:41:27.681Z,9.03
2022-11-24T08:43:57.958Z,8.88
2022-11-24T08:46:24.622Z,8.88
2022-11-24T08:48:53.635Z,8.98
2022-11-24T08:51:23.026Z,9.18
2022-11-24T08:53:49.521Z,9.36
2022-11-24T08:56:16.029Z,9.50
2022-11-24T08:58:42.690Z,9.49
2022-11-24T09:01:15.348Z,9.46
2022-11-24T09:03:48.538Z,9.63
2022-11-24T09:06:25.275Z,9.87
2022-11-24T09:08:53.939Z,9.97
2022-11-24T09:11:20.563Z,10.12
2022-11-24T09:13:47.145Z,10.31
2022-11-24T09:16:16.663Z,10.33
2022-11-24T09:18:43.967Z,10.50
2022-11-24T09:21:19.443Z,10.67
2022-11-24T09:23:51.102Z,10.84
2022-11-24T09:26:28.008Z,11.07
2022-11-24T09:28:55.958Z,11.22
2022-11-24T09:31:28.981Z,11.26
2022-11-24T09:33:59.400Z,11.07
2022-11-24T09:36:26.298Z,11.14
2022-11-24T09:38:52.755Z,11.14
2022-11-24T09:41:40.555Z,10.97
2022-11-24T09:44:28.872Z,10.97
2022-11-24T09:46:58.864Z,11.07
2022-11-24T09:49:51.677Z,10.96
2022-11-24T09:52:32.254Z,10.89
2022-11-24T09:55:03.515Z,10.79
2022-11-24T09:57:37.536Z,10.60
2022-11-24T10:00:13.271Z,10.65
2022-11-24T10:02:39.816Z,10.77
2022-11-24T10:05:06.860Z,10.75
2022-11-24T10:07:42.506Z,10.72
2022-11-24T10:10:12.043Z,10.81
2022-11-24T10:12:50.672Z,10.72
2022-11-24T10:15:21.597Z,10.84
2022-11-24T10:17:57.148Z,10.88
2022-11-24T10:20:54.793Z,10.85
2022-11-24T10:24:02.378Z,10.86
2022-11-24T10:26:42.559Z,10.90
2022-11-24T10:29:35.168Z,10.81
2022-11-24T10:32:07.523Z,10.77
2022-11-24T10:34:37.802Z,10.69
2022-11-24T10:37:19.444Z,10.72
2022-11-24T10:40:03.930Z,10.89
2022-11-24T10:42:38.345Z,10.81
2022-11-24T10:45:19.397Z,10.86
2022-11-24T10:47:46.863Z,10.69
2022-11-24T10:50:28.150Z,10.89
2022-11-24T10:53:03.831Z,11.05
2022-11-24T10:55:55.468Z,11.23
2022-11-24T10:58:26.770Z,11.35
2022-11-24T11:00:54.710Z,11.32
2022-11-24T11:03:22.529Z,11.12
2022-11-24T11:05:55.783Z,11.15
2022-11-24T11:08:32.013Z,11.04
2022-11-24T11:11:16.657Z,11.02
2022-11-24T11:14:04.632Z,11.18
2022-11-24T11:16:46.101Z,11.17
2022-11-24T11:19:49.555Z,11.21
2022-11-24T11:22:28.445Z,11.36
2022-11-24T11:25:09.494Z,11.33
2022-11-24T11:27:36.845Z,11.23
2022-11-24T11:36:11.159Z,11.26
2022-11-24T11:38:39.291Z,11.07
2022-11-24T11:41:13.005Z,11.09
2022-11-24T11:43:41.012Z,11.04
2022-11-24T11:46:18.137Z,11.08
2022-11-24T11:48:46.842Z,11.17
2022-11-24T11:51:24.242Z,11.01
2022-11-24T11:53:57.827Z,10.91
2022-11-24T11:56:25.922Z,10.93
2022-11-24T11:59:00.385Z,10.93
2022-11-24T12:02:00.793Z,10.95
2022-11-24T12:04:36.676Z,11.00
2022-11-24T12:07:22.309Z,10.91
2022-11-24T12:10:15.796Z,10.83
2022-11-24T12:13:24.554Z,10.49
2022-11-24T12:15:57.834Z,10.11
2022-11-24T12:18:56.976Z,9.86
2022-11-24T12:21:46.172Z,9.56
2022-11-24T12:24:28.085Z,9.36
2022-11-24T12:27:05.553Z,9.34
2022-11-24T12:30:01.238Z,9.27
2022-11-24T12:32:49.511Z,9.20
2022-11-24T12:35:37.602Z,9.19
2022-11-24T12:38:16.238Z,9.10
2022-11-24T12:41:33.542Z,9.11
2022-11-24T12:43:52.980Z,9.08
2022-11-24T12:46:52.070Z,9.16
2022-11-24T12:49:24.594Z,9.20
2022-11-24T12:52:27.079Z,9.19
2022-11-24T12:54:55.938Z,9.07
2022-11-24T12:57:34.282Z,9.04
2022-11-24T13:00:07.894Z,9.07
2022-11-24T13:03:11.272Z,9.01
2022-11-24T13:05:58.705Z,8.97
2022-11-24T13:08:27.975Z,8.92
2022-11-24T13:10:56.396Z,9.02
2022-11-24T13:13:29.845Z,8.99
2022-11-24T13:16:20.568Z,9.10
2022-11-24T13:19:21.466Z,9.05
2022-11-24T13:21:56.586Z,9.16
2022-11-24T13:24:26.376Z,9.14
2022-11-24T13:27:15.187Z,9.09
2022-11-24T13:29:43.933Z,9.15
2022-11-24T13:32:30.318Z,9.13
2022-11-24T13:35:04.056Z,9.14
2022-11-24T13:37:34.948Z,9.13
2022-11-24T13:40:22.606Z,9.16
2022-11-24T13:42:58.753Z,9.21
2022-11-24T13:45:49.793Z,9.32
2022-11-24T13:48:19.379Z,9.39
2022-11-24T13:50:56.038Z,9.38
2022-11-24T13:53:36.379Z,9.43
2022-11-24T13:56:02.926Z,9.39
2022-11-24T13:58:54.952Z,9.39
2022-11-24T14:01:33.154Z,9.43
2022-11-24T14:04:33.078Z,9.38
2022-11-24T14:07:09.000Z,9.27
2022-11-24T14:09:50.167Z,9.35
2022-11-24T14:12:20.184Z,9.33
2022-11-24T14:14:51.142Z,9.27
2022-11-24T14:17:27.678Z,9.27
2022-11-24T14:19:58.298Z,9.22
2022-11-24T14:22:36.444Z,9.14
2022-11-24T14:25:03.719Z,9.17
2022-11-24T14:27:40.046Z,9.23
2022-11-24T14:30:09.475Z,9.13
2022-11-24T14:32:37.730Z,9.04
2022-11-24T14:35:24.564Z,8.99
2022-11-24T14:37:51.315Z,9.04
2022-11-24T14:40:36.963Z,8.91
2022-11-24T14:43:05.704Z,8.84
2022-11-24T14:45:34.437Z,8.93
2022-11-24T14:48:00.931Z,8.96
2022-11-24T14:50:27.622Z,8.85
2022-11-24T14:52:58.528Z,8.88
2022-11-24T14:55:32.909Z,8.79
2022-11-24T14:58:00.021Z,8.79
2022-11-24T15:00:32.333Z,8.72
2022-11-24T15:03:01.789Z,8.68
2022-11-24T15:05:50.288Z,8.67
2022-11-24T15:08:19.717Z,8.69
2022-11-24T15:10:46.711Z,8.67
2022-11-24T15:13:22.573Z,8.62
2022-11-24T15:16:01.806Z,8.59
2022-11-24T15:18:42.274Z,8.60
2022-11-24T15:21:18.943Z,8.51
2022-11-24T15:24:05.202Z,8.47
2022-11-24T15:26:35.458Z,8.47
2022-11-24T15:29:04.891Z,8.46
2022-11-24T15:31:32.206Z,8.44
2022-11-24T15:33:58.786Z,8.51
2022-11-24T15:36:25.256Z,8.34
2022-11-24T15:38:52.219Z,8.42
2022-11-24T15:41:24.727Z,8.37
2022-11-24T15:43:58.579Z,8.24
2022-11-24T15:46:29.887Z,8.25
2022-11-24T15:48:57.277Z,8.23
2022-11-24T15:51:26.426Z,8.18
2022-11-24T15:54:00.333Z,8.12
2022-11-24T15:56:35.655Z,8.07
2022-11-24T15:59:02.923Z,7.93
2022-11-24T16:01:32.366Z,7.76
2022-11-24T16:04:01.613Z,7.70
2022-11-24T16:06:28.154Z,7.75
2022-11-24T16:08:58.107Z,7.75
2022-11-24T16:11:24.599Z,7.61
2022-11-24T16:13:53.779Z,7.58
2022-11-24T16:16:23.042Z,7.59
2022-11-24T16:18:49.625Z,7.54
2022-11-24T16:21:16.237Z,7.64
2022-11-24T16:23:42.706Z,7.69
2022-11-24T16:26:10.254Z,7.59
2022-11-24T16:28:40.654Z,7.49
2022-11-24T16:31:07.256Z,7.40
2022-11-24T16:33:40.548Z,7.32
2022-11-24T16:36:08.008Z,7.25
2022-11-24T16:38:35.485Z,7.31
2022-11-24T16:41:01.944Z,7.30
2022-11-24T16:43:29.282Z,7.29
2022-11-24T16:46:14.232Z,7.25
2022-11-24T16:48:40.764Z,7.37
2022-11-24T16:51:11.691Z,7.28
2022-11-24T16:53:40.933Z,7.21
2022-11-24T16:56:07.776Z,7.13
2022-11-24T16:58:37.622Z,7.11
2022-11-24T17:01:05.860Z,7.02
2022-11-24T17:03:33.807Z,7.03
2022-11-24T17:06:01.127Z,7.08
2022-11-24T17:08:31.087Z,7.16
2022-11-24T17:11:04.425Z,7.17
2022-11-24T17:13:32.751Z,7.03
2022-11-24T17:15:59.197Z,7.07
2022-11-24T17:18:25.845Z,7.15
2022-11-24T17:20:52.394Z,7.11
2022-11-24T17:23:19.745Z,7.18
2022-11-24T17:25:48.419Z,7.17
2022-11-24T17:28:15.077Z,7.23
2022-11-24T17:30:43.832Z,7.30
2022-11-24T17:33:10.551Z,7.38
2022-11-24T17:35:37.438Z,7.34
2022-11-24T17:38:04.357Z,7.40
2022-11-24T17:40:30.865Z,7.50
2022-11-24T17:42:59.242Z,7.48
2022-11-24T17:45:27.083Z,7.56
2022-11-24T17:47:56.153Z,7.56
2022-11-24T17:50:26.387Z,7.52
2022-11-24T17:52:53.967Z,7.56
2022-11-24T17:55:20.815Z,7.56
2022-11-24T17:57:47.375Z,7.58
2022-11-24T18:00:14.676Z,7.58
2022-11-24T18:02:41.249Z,7.69
2022-11-24T18:05:08.302Z,7.53
2022-11-24T18:07:40.250Z,7.51
2022-11-24T18:10:07.485Z,7.52
2022-11-24T18:12:34.344Z,7.56
2022-11-24T18:15:03.185Z,7.38
2022-11-24T18:17:29.692Z,7.39
2022-11-24T18:19:56.260Z,7.46
2022-11-24T18:22:43.097Z,7.45
2022-11-24T18:25:10.085Z,7.41
2022-11-24T18:27:38.900Z,7.34
2022-11-24T18:30:06.207Z,7.25
2022-11-24T18:32:33.020Z,7.10
2022-11-24T18:34:59.506Z,7.29
2022-11-24T18:37:30.575Z,7.08
2022-11-24T18:39:57.209Z,7.05
2022-11-24T18:42:25.899Z,6.94
2022-11-24T18:44:57.488Z,6.93
2022-11-24T18:47:24.389Z,6.73
2022-11-24T18:49:51.052Z,6.71
2022-11-24T18:52:17.595Z,6.65
2022-11-24T18:54:44.137Z,6.57
2022-11-24T18:57:10.675Z,6.40
2022-11-24T18:59:37.289Z,6.42
2022-11-24T19:02:03.770Z,6.23
2022-11-24T19:04:30.247Z,5.93
2022-11-24T19:06:57.023Z,5.87
2022-11-24T19:09:25.394Z,5.76
2022-11-24T19:11:51.933Z,5.80
2022-11-24T19:14:20.847Z,5.52
2022-11-24T19:16:50.319Z,5.62
2022-11-24T19:19:17.275Z,5.46
2022-11-24T19:21:44.433Z,5.25
2022-11-24T19:24:11.790Z,5.33
2022-11-24T19:26:39.115Z,5.45
2022-11-24T19:29:06.688Z,5.33
2022-11-24T19:31:34.526Z,5.24
2022-11-24T19:34:02.946Z,5.17
2022-11-24T19:36:29.694Z,5.19
2022-11-24T19:38:57.873Z,5.17
2022-11-24T19:41:29.591Z,5.11
2022-11-24T19:43:59.075Z,5.02
2022-11-24T19:46:29.261Z,4.70
2022-11-24T19:48:58.591Z,4.67
2022-11-24T19:51:33.011Z,4.85
2022-11-24T19:54:00.314Z,4.84
2022-11-24T19:56:29.752Z,4.91
2022-11-24T19:58:56.586Z,4.79
2022-11-24T20:01:34.302Z,4.74
2022-11-24T20:04:03.154Z,4.55
2022-11-24T20:06:33.452Z,4.67
2022-11-24T20:09:06.314Z,4.68
2022-11-24T20:11:33.195Z,4.84
2022-11-24T20:14:02.464Z,4.84
2022-11-24T20:16:31.203Z,4.52
2022-11-24T20:19:00.069Z,4.42
2022-11-24T20:21:28.974Z,4.39
2022-11-24T20:24:07.755Z,4.26
2022-11-24T20:26:38.177Z,4.23
2022-11-24T20:29:09.846Z,4.17
2022-11-24T20:31:39.178Z,4.15
2022-11-24T20:34:07.477Z,4.19
2022-11-24T20:36:36.372Z,4.00
2022-11-24T20:39:07.198Z,3.97
2022-11-24T20:41:38.845Z,4.03
2022-11-24T20:44:10.505Z,4.04
2022-11-24T20:46:39.230Z,3.95
2022-11-24T20:49:09.968Z,3.69
2022-11-24T20:51:39.752Z,3.73
2022-11-24T20:54:08.516Z,3.88
2022-11-24T20:56:37.669Z,3.73
2022-11-24T20:59:04.732Z,3.65
2022-11-24T21:01:38.446Z,3.71
2022-11-24T21:04:11.417Z,3.68
2022-11-24T21:06:40.832Z,3.58
2022-11-24T21:09:09.259Z,3.56
2022-11-24T21:11:39.284Z,3.56
2022-11-24T21:14:06.726Z,3.48
2022-11-24T21:16:36.336Z,3.54
2022-11-24T21:19:11.805Z,3.39
2022-11-24T21:21:39.673Z,3.50
2022-11-24T21:24:11.949Z,3.14
2022-11-24T21:26:39.791Z,3.31
2022-11-24T21:29:07.273Z,3.11
2022-11-24T21:31:38.296Z,3.14
2022-11-24T21:34:05.906Z,3.06
2022-11-24T21:36:35.770Z,3.09
2022-11-24T21:39:03.622Z,2.94
2022-11-24T21:41:33.213Z,2.93
2022-11-24T21:43:59.959Z,2.95
2022-11-24T21:46:28.409Z,2.88
2022-11-24T21:48:54.833Z,2.70
2022-11-24T21:51:21.336Z,2.79
2022-11-24T21:53:48.494Z,2.86
2022-11-24T21:56:20.392Z,2.73
2022-11-24T21:58:52.162Z,2.80
2022-11-24T22:01:21.036Z,2.88
2022-11-24T22:03:47.537Z,2.67
2022-11-24T22:06:19.012Z,2.72
2022-11-24T22:08:49.163Z,2.81
2022-11-24T22:11:25.887Z,2.75
2022-11-24T22:13:55.089Z,2.73
2022-11-24T22:16:24.013Z,2.73
2022-11-24T22:18:51.477Z,2.56
2022-11-24T22:21:23.657Z,2.38
2022-11-24T22:23:53.618Z,2.56
2022-11-24T22:26:22.477Z,2.58
2022-11-24T22:28:49.734Z,2.51
2022-11-24T22:31:17.260Z,2.57
2022-11-24T22:33:44.422Z,2.59
2022-11-24T22:36:12.733Z,2.55
2022-11-24T22:38:40.261Z,2.50
2022-11-24T22:41:15.021Z,2.54
2022-11-24T22:43:44.742Z,2.57
2022-11-24T22:46:13.753Z,2.61
2022-11-24T22:48:41.065Z,2.35
2022-11-24T22:51:11.892Z,2.14
2022-11-24T22:53:38.679Z,2.16
2022-11-24T22:56:07.600Z,2.37
2022-11-24T22:58:34.189Z,2.18
2022-11-24T23:01:11.525Z,2.21
2022-11-24T23:03:38.836Z,2.01
2022-11-24T23:06:08.422Z,1.97
2022-11-24T23:08:37.304Z,1.90
2022-11-24T23:11:09.788Z,1.92
2022-11-24T23:13:36.605Z,1.98
2022-11-24T23:16:05.980Z,1.83
2022-11-24T23:18:32.674Z,1.80
2022-11-24T23:21:26.653Z,1.79
2022-11-24T23:23:55.927Z,1.76
2022-11-24T23:26:28.223Z,1.80
2022-11-24T23:28:57.028Z,1.98
2022-11-24T23:31:28.847Z,1.83
2022-11-24T23:33:57.594Z,1.92
2022-11-24T23:36:24.319Z,1.77
2022-11-24T23:38:53.102Z,1.78
2022-11-24T23:41:25.297Z,1.73
2022-11-24T23:43:52.738Z,1.71
2022-11-24T23:46:24.170Z,1.78
2022-11-24T23:48:52.191Z,1.81
2022-11-24T23:51:19.798Z,1.72
2022-11-24T23:53:46.896Z,1.51
2022-11-24T23:56:19.238Z,1.63
2022-11-24T23:58:45.975Z,1.72
